Terminal Aerodrome Forecast
Issued by NWS

Home | Current Version | Previous Version | Text Only | Print | Product List | Glossary On
Versions: 1 2 3 4 5 6 7 8 9 10 11 12 13 14 15 16 17 18 19 20 21 22 23 24 25 26 27 28 29 30 31 32 33 34 35 36 37 38 39 40 41
000
FTUS43 KGRB 240851 AAA
TAFATW
TAF AMD
KATW 240851Z 2409/2506 32010G16KT 6SM -RA SCT012 BKN030
      TEMPO 2409/2411 4SM -RA BR SCT009 BKN012
     FM241100 33012G20KT 4SM -RA BR SCT010 OVC025
      TEMPO 2411/2415 2SM RA BR OVC010
     FM241500 30020G32KT 6SM -SHRA BR OVC025
     FM241800 31022G35KT P6SM SCT022 OVC035
      TEMPO 2418/2422 5SM -SHRA BR BKN022
     FM242200 30015G23KT P6SM SCT030 BKN070=

USA.gov is the U.S. government's official web portal to all federal, state and local government web resources and services.